Time;durP1;ratioP1;P1;durP2;ratioP2;P2;SDS_P1;SDS_P2;PMS_P1;PMS_P2;Temp;Humidity;BMP_temperature;BMP_pressure;BME280_temperature;BME280_humidity;BME280_pressure;Samples;Min_cycle;Max_cycle;Signal;HPM_P1;HPM_P2
2023/09/22 00:01:22;;;;;;;0.10;0.10;;;;;;;15.65;76.51;99890.31;5065381;28;20036;-76
2023/09/22 00:03:48;;;;;;;0.10;0.10;;;;;;;15.66;76.38;99892.03;5068384;28;20506;-76
2023/09/22 00:06:15;;;;;;;0.10;0.10;;;;;;;15.64;77.02;99881.44;5076261;28;20115;-76
2023/09/22 00:08:41;;;;;;;0.10;0.10;;;;;;;15.67;76.87;99885.75;5066220;28;20025;-77
2023/09/22 00:11:07;;;;;;;0.00;0.00;;;;;;;15.71;76.68;99881.09;5067239;28;20551;-76
2023/09/22 00:13:34;;;;;;;0.00;0.00;;;;;;;15.74;76.35;99880.91;5071650;28;20069;-76
2023/09/22 00:16:00;;;;;;;0.10;0.10;;;;;;;15.63;77.43;99884.22;5084158;28;20100;-76
2023/09/22 00:18:26;;;;;;;0.30;0.30;;;;;;;15.71;76.91;99876.59;5082179;28;20517;-76
2023/09/22 00:20:54;;;;;;;0.20;0.20;;;;;;;15.71;77.22;99871.28;5070538;28;20060;-76
2023/09/22 00:23:21;;;;;;;0.22;0.22;;;;;;;15.69;77.22;99870.50;5068996;28;20046;-77
2023/09/22 00:25:47;;;;;;;0.13;0.13;;;;;;;15.72;77.00;99877.50;5067287;28;20066;-77
2023/09/22 00:28:13;;;;;;;0.20;0.20;;;;;;;15.66;76.89;99884.03;5068790;28;20443;-77
2023/09/22 00:30:39;;;;;;;0.13;0.13;;;;;;;15.71;76.93;99895.31;5070041;28;20033;-74
2023/09/22 00:33:06;;;;;;;0.10;0.10;;;;;;;15.69;77.24;99902.56;5075674;28;20493;-76
2023/09/22 00:35:32;;;;;;;0.10;0.10;;;;;;;15.74;76.93;99912.97;5057193;28;20032;-77
2023/09/22 00:37:59;;;;;;;0.45;0.45;;;;;;;15.73;77.37;99912.09;5067087;28;20040;-76
2023/09/22 00:40:26;;;;;;;0.10;0.10;;;;;;;15.70;76.85;99912.25;5061814;28;20032;-74
2023/09/22 00:43:09;;;;;;;0.30;0.30;;;;;;;15.75;77.02;99899.53;5061399;28;20029;-76
2023/09/22 00:45:41;;;;;;;1.58;1.48;;;;;;;15.67;76.69;99907.97;5071393;28;20102;-77
2023/09/22 00:48:08;;;;;;;0.73;0.73;;;;;;;15.65;76.70;99903.66;5079515;28;20082;-76
2023/09/22 00:50:35;;;;;;;1.40;1.33;;;;;;;15.64;76.40;99905.47;5069023;28;20025;-77
2023/09/22 00:53:02;;;;;;;0.82;0.73;;;;;;;15.61;76.32;99907.47;5069331;28;20040;-76
2023/09/22 00:55:28;;;;;;;1.30;1.08;;;;;;;15.57;76.66;99911.25;5054329;28;20032;-74
2023/09/22 00:57:54;;;;;;;1.48;0.50;;;;;;;15.55;76.62;99905.13;5071886;28;20371;-77
2023/09/22 01:00:20;;;;;;;0.10;0.10;;;;;;;15.45;76.19;99905.66;5071340;28;20031;-76
2023/09/22 01:02:46;;;;;;;0.20;0.20;;;;;;;15.40;76.18;99901.50;5064230;28;20035;-76
2023/09/22 01:05:13;;;;;;;0.45;0.45;;;;;;;15.37;76.23;99905.22;5082766;28;20055;-76
2023/09/22 01:07:39;;;;;;;0.15;0.15;;;;;;;15.40;75.78;99899.69;5080454;28;20029;-76
2023/09/22 01:10:13;;;;;;;1.27;1.20;;;;;;;15.38;76.25;99898.94;5069400;28;20012;-76
2023/09/22 01:12:39;;;;;;;0.20;0.20;;;;;;;15.35;76.13;99896.41;5070214;28;20375;-76
2023/09/22 01:15:08;;;;;;;1.42;1.38;;;;;;;15.32;75.89;99902.78;5073089;28;20385;-76
2023/09/22 01:17:34;;;;;;;0.20;0.20;;;;;;;15.30;76.07;99904.69;5084945;28;20060;-76
2023/09/22 01:20:00;;;;;;;0.40;0.40;;;;;;;15.28;76.16;99898.56;5083810;28;20032;-75
2023/09/22 01:22:26;;;;;;;0.10;0.10;;;;;;;15.26;75.99;99888.94;5070656;28;20036;-76
2023/09/22 01:24:52;;;;;;;0.60;0.60;;;;;;;15.26;75.85;99897.78;5065142;28;20051;-76
2023/09/22 01:27:18;;;;;;;0.85;0.52;;;;;;;15.26;75.89;99902.25;5068995;28;20060;-75
2023/09/22 01:29:45;;;;;;;0.85;0.73;;;;;;;15.24;76.05;99891.69;5061402;28;20039;-75
2023/09/22 01:32:11;;;;;;;0.52;0.50;;;;;;;15.25;76.15;99885.38;5065764;28;20033;-76
2023/09/22 01:34:37;;;;;;;0.47;0.47;;;;;;;15.26;76.05;99883.59;5066810;28;20482;-77
2023/09/22 01:37:07;;;;;;;0.40;0.40;;;;;;;15.28;76.13;99873.69;5068628;28;20053;-77
2023/09/22 01:39:34;;;;;;;0.10;0.10;;;;;;;15.24;75.99;99882.78;5071502;28;20382;-77
2023/09/22 01:42:00;;;;;;;0.10;0.10;;;;;;;15.25;75.66;99889.88;5074644;28;20040;-77
2023/09/22 01:44:27;;;;;;;1.30;1.10;;;;;;;15.24;75.84;99877.47;5069968;28;20470;-77
2023/09/22 01:46:53;;;;;;;0.20;0.20;;;;;;;15.24;75.97;99877.47;5063848;28;20051;-75
2023/09/22 01:49:19;;;;;;;0.10;0.10;;;;;;;15.23;76.03;99870.41;5067530;28;20371;-76
2023/09/22 01:51:45;;;;;;;0.10;0.10;;;;;;;15.23;75.70;99870.41;5065130;28;20029;-76
2023/09/22 01:54:11;;;;;;;0.17;0.17;;;;;;;15.23;75.62;99865.06;5065207;28;20151;-77
2023/09/22 01:56:37;;;;;;;0.10;0.10;;;;;;;15.25;75.65;99863.19;5063862;28;20020;-76
2023/09/22 01:59:04;;;;;;;0.47;0.47;;;;;;;15.30;75.94;99864.66;5067600;28;20047;-77
2023/09/22 02:01:30;;;;;;;0.10;0.10;;;;;;;15.33;75.66;99866.28;5088617;28;20028;-77
2023/09/22 02:03:56;;;;;;;0.80;0.55;;;;;;;15.33;75.89;99871.63;5077577;28;20024;-77
2023/09/22 02:06:22;;;;;;;0.10;0.10;;;;;;;15.35;75.46;99869.72;5068808;28;20466;-76
2023/09/22 02:08:48;;;;;;;0.10;0.10;;;;;;;15.33;75.82;99871.63;5079071;28;20043;-76
2023/09/22 02:11:14;;;;;;;0.10;0.10;;;;;;;15.39;75.53;99876.63;5063774;28;20440;-76
2023/09/22 02:13:40;;;;;;;0.10;0.10;;;;;;;15.41;75.54;99866.72;5065152;28;20099;-76
2023/09/22 02:16:06;;;;;;;0.10;0.10;;;;;;;15.41;75.68;99869.38;5070482;28;20074;-76
2023/09/22 02:18:32;;;;;;;0.10;0.10;;;;;;;15.41;75.33;99865.88;5071413;28;20040;-76
2023/09/22 02:20:58;;;;;;;1.65;0.90;;;;;;;15.39;75.65;99871.28;5087588;28;20144;-76
2023/09/22 02:23:26;;;;;;;0.20;0.20;;;;;;;15.38;75.38;99869.56;5072782;28;20028;-76
2023/09/22 02:25:52;;;;;;;0.05;0.05;;;;;;;15.40;75.19;99866.81;5069564;28;20021;-76
2023/09/22 02:28:19;;;;;;;0.10;0.10;;;;;;;15.37;75.68;99862.50;5070151;28;20062;-76
2023/09/22 02:30:45;;;;;;;0.57;0.57;;;;;;;15.40;75.55;99866.81;5070674;28;20464;-75
2023/09/22 02:33:11;;;;;;;0.80;0.80;;;;;;;15.41;75.34;99876.53;5070175;28;20054;-76
2023/09/22 02:35:41;;;;;;;0.10;0.10;;;;;;;15.39;75.88;99871.28;5069619;28;20032;-75
2023/09/22 02:38:07;;;;;;;0.63;0.63;;;;;;;15.36;75.54;99874.13;5069966;28;20040;-76
2023/09/22 02:40:33;;;;;;;0.10;0.10;;;;;;;15.35;75.44;99875.06;5070353;28;20103;-76
2023/09/22 02:42:59;;;;;;;1.10;0.95;;;;;;;15.39;75.64;99876.63;5070391;28;20492;-74
2023/09/22 02:45:25;;;;;;;0.38;0.38;;;;;;;15.37;75.45;99874.03;5069167;28;20035;-75
2023/09/22 02:47:53;;;;;;;0.10;0.10;;;;;;;15.41;75.55;99868.53;5070419;28;20048;-74
2023/09/22 02:50:19;;;;;;;2.85;1.33;;;;;;;15.35;75.87;99865.25;5075563;28;20031;-77
2023/09/22 02:52:45;;;;;;;1.08;0.63;;;;;;;15.38;75.40;99869.56;5072420;28;20059;-76
2023/09/22 02:55:13;;;;;;;0.38;0.38;;;;;;;15.40;75.54;99870.31;5070970;28;20113;-75
2023/09/22 02:57:42;;;;;;;0.10;0.10;;;;;;;15.36;75.32;99868.78;5070155;28;20023;-76
2023/09/22 03:00:11;;;;;;;0.10;0.10;;;;;;;15.35;75.25;99870.59;5069820;28;20103;-76
2023/09/22 03:02:38;;;;;;;0.10;0.10;;;;;;;15.35;75.58;99862.59;5069891;28;20025;-77
2023/09/22 03:05:07;;;;;;;0.10;0.10;;;;;;;15.39;75.39;99870.41;5069954;28;20047;-76
2023/09/22 03:07:33;;;;;;;0.40;0.40;;;;;;;15.37;75.49;99863.34;5068690;28;20406;-76
2023/09/22 03:09:59;;;;;;;1.45;0.60;;;;;;;15.35;75.88;99859.03;5070158;28;20032;-77
2023/09/22 03:12:26;;;;;;;0.10;0.10;;;;;;;15.38;75.72;99864.22;5056902;28;20037;-76
2023/09/22 03:14:52;;;;;;;0.43;0.43;;;;;;;15.37;75.98;99862.50;5069302;28;20067;-77
2023/09/22 03:17:18;;;;;;;0.20;0.20;;;;;;;15.36;75.93;99871.44;5069586;28;20134;-77
2023/09/22 03:19:45;;;;;;;0.45;0.45;;;;;;;15.32;75.73;99859.22;5072772;28;20024;-77
2023/09/22 03:22:11;;;;;;;0.10;0.10;;;;;;;15.29;76.02;99870.06;5072618;28;20060;-76
2023/09/22 03:24:37;;;;;;;0.22;0.22;;;;;;;15.23;76.03;99870.41;5070394;28;20024;-76
2023/09/22 03:27:03;;;;;;;0.10;0.10;;;;;;;15.26;76.11;99871.09;5068882;28;20036;-76
2023/09/22 03:29:29;;;;;;;0.98;0.88;;;;;;;15.20;76.01;99861.63;5069771;28;20120;-77
2023/09/22 03:31:55;;;;;;;0.10;0.10;;;;;;;15.27;76.25;99861.28;5071852;28;20025;-76
2023/09/22 03:34:21;;;;;;;0.20;0.20;;;;;;;15.23;76.54;99859.72;5076276;28;20040;-77
2023/09/22 03:36:49;;;;;;;0.10;0.10;;;;;;;15.18;76.31;99860.84;5075843;28;20035;-77
2023/09/22 03:39:16;;;;;;;0.20;0.20;;;;;;;15.22;76.32;99863.38;5072731;28;20092;-77
2023/09/22 03:41:42;;;;;;;0.47;0.47;;;;;;;15.26;76.24;99862.25;5071305;28;20035;-77
2023/09/22 03:44:09;;;;;;;1.83;0.80;;;;;;;15.29;76.37;99862.94;5069047;28;20028;-75
2023/09/22 03:46:35;;;;;;;0.45;0.32;;;;;;;15.31;76.21;99860.16;5074853;28;20039;-77
2023/09/22 03:49:03;;;;;;;0.20;0.20;;;;;;;15.30;76.11;99858.44;5062241;28;20060;-77
2023/09/22 03:51:29;;;;;;;0.20;0.20;;;;;;;15.27;76.12;99856.81;5079421;28;20032;-77
2023/09/22 03:53:55;;;;;;;0.55;0.55;;;;;;;15.26;76.22;99849.75;5076423;28;20032;-77
2023/09/22 03:56:21;;;;;;;1.85;0.68;;;;;;;15.23;76.15;99843.72;5084645;28;20042;-77
2023/09/22 03:58:48;;;;;;;0.52;0.38;;;;;;;15.23;76.45;99841.94;5102497;28;20020;-78
2023/09/22 04:01:14;;;;;;;0.65;0.65;;;;;;;15.26;76.05;99855.09;5093493;28;20063;-78
2023/09/22 04:03:40;;;;;;;0.10;0.10;;;;;;;15.26;76.28;99848.91;5084410;28;20046;-77
2023/09/22 04:06:06;;;;;;;0.10;0.10;;;;;;;15.18;76.44;99857.34;5097429;28;20537;-77
2023/09/22 04:08:33;;;;;;;0.10;0.10;;;;;;;15.25;76.17;99857.84;5082712;28;20031;-77
2023/09/22 04:11:02;;;;;;;0.55;0.55;;;;;;;15.27;76.28;99869.31;5080170;28;20115;-76
2023/09/22 04:13:29;;;;;;;0.10;0.10;;;;;;;15.25;76.46;99868.50;5090673;28;20094;-77
2023/09/22 04:15:59;;;;;;;0.13;0.13;;;;;;;15.28;76.62;99865.69;5091938;28;20149;-77
2023/09/22 04:18:29;;;;;;;0.20;0.20;;;;;;;15.31;76.19;99870.84;5081071;28;20036;-77
2023/09/22 04:21:01;;;;;;;0.10;0.10;;;;;;;15.38;76.30;99869.56;5074480;28;20108;-75
2023/09/22 04:23:27;;;;;;;0.47;0.47;;;;;;;15.39;76.23;99865.97;5072426;28;20031;-77
2023/09/22 04:25:59;;;;;;;0.60;0.50;;;;;;;15.45;76.22;99862.94;5067476;28;20034;-77
2023/09/22 04:28:25;;;;;;;0.90;0.90;;;;;;;15.47;76.56;99862.84;5068675;28;20025;-76
2023/09/22 04:30:54;;;;;;;1.25;1.20;;;;;;;15.52;76.58;99869.63;5065818;28;20041;-75
2023/09/22 04:33:21;;;;;;;0.10;0.10;;;;;;;15.53;76.52;99863.34;5067026;28;20052;-76
2023/09/22 04:35:48;;;;;;;0.20;0.20;;;;;;;15.55;76.35;99865.09;5065026;28;20067;-76
2023/09/22 04:38:14;;;;;;;0.90;0.68;;;;;;;15.52;76.21;99866.97;5074568;28;20038;-77
2023/09/22 04:40:41;;;;;;;1.20;0.45;;;;;;;15.48;76.37;99876.09;5072354;28;20025;-77
2023/09/22 04:43:07;;;;;;;0.20;0.20;;;;;;;15.40;76.02;99870.31;5072523;28;20032;-76
2023/09/22 04:45:37;;;;;;;0.22;0.22;;;;;;;15.40;76.23;99873.00;5072399;28;20044;-76
2023/09/22 04:48:05;;;;;;;0.20;0.20;;;;;;;15.37;75.73;99878.50;5064694;28;20063;-77
2023/09/22 04:50:31;;;;;;;0.10;0.10;;;;;;;15.33;76.11;99876.97;5075354;28;20161;-76
2023/09/22 04:52:58;;;;;;;0.10;0.10;;;;;;;15.34;75.98;99889.38;5089420;28;20040;-76
2023/09/22 04:55:25;;;;;;;0.75;0.75;;;;;;;15.28;75.84;99885.22;5066986;28;20032;-76
2023/09/22 04:57:51;;;;;;;0.30;0.30;;;;;;;15.27;76.07;99893.31;5068655;28;20028;-76
2023/09/22 05:00:20;;;;;;;0.22;0.22;;;;;;;15.28;76.13;99895.06;5074611;28;20029;-77
2023/09/22 05:02:46;;;;;;;0.10;0.10;;;;;;;15.32;76.40;99883.25;5073909;28;20531;-76
2023/09/22 05:05:16;;;;;;;0.10;0.10;;;;;;;15.35;76.23;99888.41;5091726;28;20082;-77
2023/09/22 05:07:42;;;;;;;5.55;2.90;;;;;;;15.38;76.29;99888.25;5068756;28;20040;-77
2023/09/22 05:10:09;;;;;;;0.20;0.20;;;;;;;15.43;76.24;99899.53;5069582;28;20033;-76
2023/09/22 05:12:35;;;;;;;0.15;0.15;;;;;;;15.41;76.70;99898.75;5066769;28;20043;-77
2023/09/22 05:15:02;;;;;;;0.40;0.35;;;;;;;15.42;76.59;99892.47;5068806;28;20107;-76
2023/09/22 05:17:40;;;;;;;0.80;0.45;;;;;;;15.45;76.17;99900.31;5073539;28;20078;-74
2023/09/22 05:20:43;;;;;;;0.60;0.60;;;;;;;15.45;76.23;99905.66;5069243;28;20028;-76
2023/09/22 05:23:10;;;;;;;1.25;0.68;;;;;;;15.43;76.25;99914.69;5070771;28;20072;-76
2023/09/22 05:25:40;;;;;;;0.20;0.20;;;;;;;15.41;76.20;99916.56;5070965;28;20036;-76
2023/09/22 05:28:08;;;;;;;0.10;0.10;;;;;;;15.41;76.29;99922.75;5071420;28;20660;-77
2023/09/22 05:30:38;;;;;;;0.38;0.38;;;;;;;15.45;75.94;99919.00;5074363;28;20085;-74
2023/09/22 05:33:07;;;;;;;0.10;0.10;;;;;;;15.45;75.95;99916.34;5070117;28;20036;-76
2023/09/22 05:35:35;;;;;;;0.10;0.10;;;;;;;15.48;75.85;99916.16;5084449;28;20742;-77
2023/09/22 05:38:03;;;;;;;0.52;0.52;;;;;;;15.48;75.78;99916.16;5086006;28;20447;-77
2023/09/22 05:40:34;;;;;;;0.10;0.10;;;;;;;15.44;75.68;99916.41;5076673;28;20040;-78
2023/09/22 05:43:01;;;;;;;0.10;0.10;;;;;;;15.46;75.42;99912.69;5069507;28;20131;-77
2023/09/22 05:45:28;;;;;;;0.17;0.17;;;;;;;15.51;75.32;99912.44;5069672;28;20024;-76
2023/09/22 05:47:55;;;;;;;0.73;0.73;;;;;;;15.51;75.67;99910.66;5070528;28;20024;-74
2023/09/22 05:50:23;;;;;;;0.10;0.10;;;;;;;15.48;75.09;99913.47;5072608;28;20031;-77
2023/09/22 05:52:50;;;;;;;0.60;0.60;;;;;;;15.54;75.07;99914.97;5075020;28;20028;-75
2023/09/22 05:55:18;;;;;;;0.10;0.10;;;;;;;15.58;75.30;99916.50;5071506;28;20517;-75
2023/09/22 05:57:44;;;;;;;0.10;0.10;;;;;;;15.65;74.84;99919.69;5071651;28;20052;-77
2023/09/22 06:00:17;;;;;;;0.32;0.32;;;;;;;15.65;74.46;99919.69;5071429;28;20035;-78
2023/09/22 06:02:51;;;;;;;0.10;0.10;;;;;;;15.59;73.70;99930.69;5073496;28;20032;-77
2023/09/22 06:05:19;;;;;;;0.17;0.17;;;;;;;15.48;72.90;99932.16;5071747;28;20070;-76
2023/09/22 06:07:45;;;;;;;0.30;0.30;;;;;;;15.54;72.93;99928.31;5067951;28;20059;-76
2023/09/22 06:10:12;;;;;;;0.10;0.10;;;;;;;15.49;72.46;99941.91;5074103;28;20028;-77
2023/09/22 06:12:39;;;;;;;0.10;0.10;;;;;;;15.57;72.48;99933.47;5071224;28;20037;-79
2023/09/22 06:15:08;;;;;;;0.30;0.30;;;;;;;15.58;72.46;99931.66;5070026;28;20425;-76
2023/09/22 06:17:35;;;;;;;0.52;0.52;;;;;;;15.53;72.03;99938.09;5090842;28;20553;-75
2023/09/22 06:20:13;;;;;;;0.08;0.08;;;;;;;15.63;72.15;99937.63;5090228;28;20024;-75
2023/09/22 06:22:40;;;;;;;0.70;0.70;;;;;;;15.50;71.04;99938.28;5080136;28;20528;-76
2023/09/22 06:25:08;;;;;;;0.10;0.10;;;;;;;15.56;71.21;99947.75;5089292;28;20394;-77
2023/09/22 06:27:34;;;;;;;0.10;0.10;;;;;;;15.62;71.44;99947.41;5090197;28;20100;-76
2023/09/22 06:30:01;;;;;;;0.30;0.30;;;;;;;15.70;71.52;99944.31;5090438;28;20055;-77
2023/09/22 06:32:27;;;;;;;0.10;0.10;;;;;;;15.62;70.96;99947.41;5090228;28;20035;-77
2023/09/22 06:34:53;;;;;;;0.17;0.17;;;;;;;15.62;71.24;99951.91;5089342;28;20114;-76
2023/09/22 06:37:20;;;;;;;1.45;0.75;;;;;;;15.64;70.66;99950.03;5085324;28;20028;-76
2023/09/22 06:39:46;;;;;;;1.40;0.93;;;;;;;15.51;70.08;99949.81;5079217;28;20028;-76
2023/09/22 06:42:13;;;;;;;0.10;0.10;;;;;;;15.60;70.40;99952.00;5094825;28;20039;-78
2023/09/22 06:44:39;;;;;;;0.40;0.40;;;;;;;15.49;70.61;99962.41;5099283;28;20036;-77
2023/09/22 06:47:05;;;;;;;1.55;0.63;;;;;;;15.55;70.55;99962.03;5096877;28;20032;-78
2023/09/22 06:49:33;;;;;;;0.10;0.10;;;;;;;15.58;70.71;99958.38;5089373;28;20020;-77
2023/09/22 06:52:00;;;;;;;0.08;0.08;;;;;;;15.47;70.98;99965.13;5061746;28;20048;-78
2023/09/22 06:54:26;;;;;;;0.57;0.57;;;;;;;15.48;70.93;99966.88;5080079;28;20100;-77
2023/09/22 06:56:54;;;;;;;1.85;0.93;;;;;;;15.55;70.71;99977.22;5097237;28;20032;-76
2023/09/22 06:59:22;;;;;;;0.20;0.20;;;;;;;15.60;71.23;99973.34;5076298;28;20040;-77
2023/09/22 07:01:48;;;;;;;0.20;0.20;;;;;;;15.58;70.35;99982.41;5065625;28;20096;-77
2023/09/22 07:04:14;;;;;;;0.10;0.10;;;;;;;15.57;70.04;99976.19;5065746;28;20112;-77
2023/09/22 07:06:41;;;;;;;0.10;0.10;;;;;;;15.73;70.47;99983.38;5066280;28;20028;-76
2023/09/22 07:09:11;;;;;;;0.10;0.10;;;;;;;15.71;70.18;99971.91;5073457;28;20048;-77
2023/09/22 07:11:40;;;;;;;0.10;0.10;;;;;;;15.75;70.00;99987.69;5075834;28;20385;-77
2023/09/22 07:14:07;;;;;;;0.10;0.10;;;;;;;15.83;70.19;99990.78;5071110;28;20394;-76
2023/09/22 07:16:34;;;;;;;0.10;0.10;;;;;;;15.73;69.89;100002.91;5064908;28;20021;-77
2023/09/22 07:19:00;;;;;;;0.10;0.10;;;;;;;15.69;69.46;100002.22;5072006;28;20083;-77
2023/09/22 07:21:27;;;;;;;0.10;0.10;;;;;;;15.83;69.92;100004.16;5077676;28;20017;-76
2023/09/22 07:23:55;;;;;;;0.10;0.10;;;;;;;15.92;69.36;100008.13;5081276;28;20033;-78
2023/09/22 07:26:22;;;;;;;0.10;0.10;;;;;;;16.00;69.43;100005.88;5075025;28;20036;-78
2023/09/22 07:28:49;;;;;;;0.10;0.10;;;;;;;15.98;68.70;100001.59;5093195;28;20113;-77
2023/09/22 07:31:18;;;;;;;0.10;0.10;;;;;;;16.14;68.85;100017.63;5099131;28;20493;-78
2023/09/22 07:33:44;;;;;;;0.10;0.10;;;;;;;16.08;68.27;100010.78;5094020;28;20032;-76
2023/09/22 07:36:11;;;;;;;0.10;0.10;;;;;;;16.05;67.47;100013.66;5096076;28;20028;-77
2023/09/22 07:38:38;;;;;;;0.68;0.68;;;;;;;16.13;67.43;100016.75;5097502;28;20044;-76
2023/09/22 07:41:05;;;;;;;0.00;0.00;;;;;;;16.27;67.83;100018.63;5086300;28;20051;-78
2023/09/22 07:43:31;;;;;;;0.30;0.30;;;;;;;16.20;67.66;100021.75;5087734;28;20497;-78
2023/09/22 07:45:59;;;;;;;0.15;0.15;;;;;;;16.21;67.19;100023.47;5080241;28;20024;-78
2023/09/22 07:48:25;;;;;;;0.20;0.20;;;;;;;16.27;67.49;100023.13;5085338;28;20032;-77
2023/09/22 07:50:52;;;;;;;0.10;0.10;;;;;;;16.27;67.50;100031.13;5099869;28;20056;-77
2023/09/22 07:53:20;;;;;;;0.10;0.10;;;;;;;16.33;67.34;100036.97;5095553;28;20053;-78
2023/09/22 07:55:47;;;;;;;0.10;0.10;;;;;;;16.29;66.61;100042.63;5093820;28;20037;-77
2023/09/22 07:58:13;;;;;;;0.10;0.10;;;;;;;16.37;66.85;100040.34;5078501;28;20036;-78
2023/09/22 08:00:44;;;;;;;0.10;0.10;;;;;;;16.46;66.39;100045.19;5081607;28;20355;-77
2023/09/22 08:03:10;;;;;;;0.10;0.10;;;;;;;16.65;66.79;100044.97;5090973;28;20028;-77
2023/09/22 08:05:36;;;;;;;0.10;0.10;;;;;;;16.66;66.04;100037.84;5088160;28;20029;-77
2023/09/22 08:08:05;;;;;;;0.30;0.30;;;;;;;16.62;65.16;100033.59;5094071;28;20028;-76
2023/09/22 08:10:31;;;;;;;0.10;0.10;;;;;;;16.77;65.19;100048.75;5078221;28;20024;-78
2023/09/22 08:12:57;;;;;;;0.10;0.10;;;;;;;16.70;65.44;100052.75;5091211;28;20036;-77
2023/09/22 08:15:23;;;;;;;0.10;0.10;;;;;;;16.68;65.20;100057.31;5077112;28;20062;-77
2023/09/22 08:17:50;;;;;;;0.20;0.20;;;;;;;16.77;65.38;100064.81;5074029;28;20029;-77
2023/09/22 08:20:17;;;;;;;0.10;0.10;;;;;;;16.75;65.24;100071.19;5076460;28;20481;-77
2023/09/22 08:22:43;;;;;;;0.68;0.68;;;;;;;16.82;65.13;100070.75;5079979;28;20036;-77
2023/09/22 08:25:10;;;;;;;0.10;0.10;;;;;;;16.73;64.93;100078.44;5077636;28;20150;-76
2023/09/22 08:27:38;;;;;;;0.10;0.10;;;;;;;16.85;64.72;100076.84;5089301;28;20044;-77
2023/09/22 08:30:13;;;;;;;0.10;0.10;;;;;;;16.78;64.44;100077.22;5066858;28;20510;-77
2023/09/22 08:32:41;;;;;;;0.38;0.30;;;;;;;16.82;65.29;100089.47;5095381;28;20047;-75
2023/09/22 08:35:10;;;;;;;0.10;0.10;;;;;;;16.97;64.85;100084.19;5093510;28;20024;-77
2023/09/22 08:37:38;;;;;;;0.10;0.10;;;;;;;16.95;64.58;100083.44;5088121;28;20055;-77
2023/09/22 08:40:08;;;;;;;0.20;0.20;;;;;;;17.08;64.70;100081.75;5070458;28;20044;-77
2023/09/22 08:42:35;;;;;;;0.17;0.17;;;;;;;17.12;64.57;100085.97;5094350;28;20035;-76
2023/09/22 08:45:02;;;;;;;0.20;0.20;;;;;;;17.20;64.82;100090.03;5094953;28;20035;-77
2023/09/22 08:47:28;;;;;;;0.10;0.10;;;;;;;17.25;64.15;100085.25;5099186;28;20036;-78
2023/09/22 08:49:54;;;;;;;0.10;0.10;;;;;;;17.29;64.31;100098.34;5076507;28;20056;-76
2023/09/22 08:52:22;;;;;;;0.32;0.32;;;;;;;17.45;63.96;100100.09;5065497;28;20032;-77
2023/09/22 08:54:48;;;;;;;0.10;0.10;;;;;;;17.44;63.05;100091.19;5075863;28;20112;-76
2023/09/22 08:57:17;;;;;;;0.10;0.10;;;;;;;17.56;63.23;100096.78;5072414;28;20032;-77
2023/09/22 08:59:44;;;;;;;0.22;0.22;;;;;;;17.58;62.39;100101.09;5088833;28;20024;-77
2023/09/22 09:02:11;;;;;;;0.10;0.10;;;;;;;17.56;62.52;100094.94;5073710;28;20040;-76
2023/09/22 09:04:39;;;;;;;0.52;0.52;;;;;;;17.56;63.05;100094.94;5085818;28;20050;-77
2023/09/22 09:07:06;;;;;;;0.10;0.10;;;;;;;17.59;62.89;100101.94;5077101;28;20028;-77
2023/09/22 09:09:48;;;;;;;0.13;0.13;;;;;;;17.74;62.80;100105.47;5084954;28;20043;-78
2023/09/22 09:12:14;;;;;;;0.10;0.10;;;;;;;17.59;61.91;100109.97;5088784;28;20043;-76
2023/09/22 09:14:43;;;;;;;0.10;0.10;;;;;;;17.69;62.04;100105.75;5104270;28;20041;-78
2023/09/22 09:17:24;;;;;;;0.10;0.10;;;;;;;17.82;62.02;100113.03;5068558;28;20047;-78
2023/09/22 09:19:55;;;;;;;0.10;0.10;;;;;;;17.60;61.92;100111.69;5074622;28;20048;-76
2023/09/22 09:22:21;;;;;;;0.30;0.30;;;;;;;17.72;62.08;100104.72;5097311;28;20534;-78
2023/09/22 09:24:49;;;;;;;0.10;0.10;;;;;;;17.87;62.59;100114.50;5093471;28;20071;-77
2023/09/22 09:27:17;;;;;;;4.22;1.30;;;;;;;18.03;61.90;100117.13;5084421;28;20028;-78
2023/09/22 09:29:45;;;;;;;0.10;0.10;;;;;;;18.05;61.63;100117.00;5070018;28;20159;-78
2023/09/22 09:32:21;;;;;;;0.08;0.08;;;;;;;18.07;61.07;100124.00;5072584;28;20094;-77
2023/09/22 09:34:47;;;;;;;0.00;0.00;;;;;;;18.16;60.85;100114.50;5062795;28;20025;-78
2023/09/22 09:37:14;;;;;;;0.10;0.10;;;;;;;18.21;61.35;100130.31;5092475;28;20050;-77
2023/09/22 09:39:47;;;;;;;0.10;0.10;;;;;;;18.31;61.02;100123.41;5094469;28;20051;-77
2023/09/22 09:42:14;;;;;;;;;;;;;;;18.29;60.29;100119.94;5071890;28;20032;-78
2023/09/22 09:44:47;;;;;;;0.10;0.10;;;;;;;18.22;60.87;100122.16;5068643;28;19961;-77
2023/09/22 09:47:21;;;;;;;0.10;0.10;;;;;;;18.07;60.48;100120.47;5069156;28;20032;-77
2023/09/22 09:49:52;;;;;;;0.08;0.08;;;;;;;18.13;61.04;100129.91;5073968;28;20073;-77
2023/09/22 09:52:37;;;;;;;0.03;0.03;;;;;;;18.20;60.74;100136.63;5067884;28;20071;-76
2023/09/22 09:55:08;;;;;;;0.10;0.10;;;;;;;18.25;60.35;100132.69;5071461;28;20036;-75
2023/09/22 09:57:39;;;;;;;0.25;0.25;;;;;;;18.22;60.98;100134.72;5069404;28;20030;-77
2023/09/22 10:00:15;;;;;;;0.00;0.00;;;;;;;18.43;59.74;100136.00;5060940;28;20375;-77
2023/09/22 10:02:43;;;;;;;0.03;0.03;;;;;;;18.86;60.24;100129.66;5062631;28;20020;-77
2023/09/22 10:05:16;;;;;;;0.47;0.47;;;;;;;19.17;60.45;100140.22;5071255;28;20176;-76
2023/09/22 10:07:43;;;;;;;0.10;0.10;;;;;;;19.38;59.23;100141.44;5084643;28;20029;-78
2023/09/22 10:10:11;;;;;;;0.10;0.10;;;;;;;19.50;58.12;100138.88;5079371;28;20020;-77
2023/09/22 10:12:38;;;;;;;0.10;0.10;;;;;;;19.46;57.39;100135.53;5071820;28;20055;-77
2023/09/22 10:15:05;;;;;;;0.00;0.00;;;;;;;19.44;57.33;100139.28;5074569;28;20051;-78
2023/09/22 10:17:32;;;;;;;0.00;0.00;;;;;;;19.47;57.12;100145.31;5072769;28;20505;-78
2023/09/22 10:20:06;;;;;;;0.00;0.00;;;;;;;19.55;57.74;100147.47;5074814;28;20028;-78
2023/09/22 10:22:33;;;;;;;0.00;0.00;;;;;;;19.55;56.90;100148.34;5078993;28;20100;-78
2023/09/22 10:27:54;;;;;;;0.00;0.00;;;;;;;19.74;54.88;100152.47;5101037;27;20378;-78
2023/09/22 10:30:22;;;;;;;0.00;0.00;;;;;;;19.88;55.52;100138.94;5081754;28;20032;-77
2023/09/22 10:32:49;;;;;;;0.00;0.00;;;;;;;19.98;55.38;100135.59;5081684;28;20052;-78
2023/09/22 10:35:40;;;;;;;0.00;0.00;;;;;;;19.95;54.08;100136.69;5083625;28;20036;-76
2023/09/22 10:38:06;;;;;;;0.10;0.10;;;;;;;19.93;54.80;100149.38;5075503;28;20074;-77
2023/09/22 10:40:32;;;;;;;0.50;0.50;;;;;;;20.12;54.73;100150.75;5089663;28;20028;-77
2023/09/22 10:43:03;;;;;;;0.05;0.05;;;;;;;20.29;54.06;100136.94;5082928;28;20088;-78
2023/09/22 10:45:29;;;;;;;0.00;0.00;;;;;;;20.35;53.22;100135.66;5093310;28;20024;-77
2023/09/22 10:47:58;;;;;;;0.10;0.10;;;;;;;20.25;53.17;100139.97;5081530;28;20033;-77
2023/09/22 10:50:31;;;;;;;0.10;0.10;;;;;;;20.40;52.97;100149.63;5078567;28;20227;-78
2023/09/22 10:55:38;;;;;;;0.00;0.00;;;;;;;20.46;51.40;100134.84;5110963;27;20761;-77
2023/09/22 10:58:06;;;;;;;0.10;0.10;;;;;;;20.47;51.75;100141.97;5110624;28;20039;-77
2023/09/22 11:00:49;;;;;;;0.03;0.03;;;;;;;20.66;52.30;100144.16;5110201;28;20028;-77
2023/09/22 11:03:16;;;;;;;0.10;0.10;;;;;;;20.82;52.80;100143.91;5116588;28;20028;-78
2023/09/22 11:05:44;;;;;;;0.10;0.10;;;;;;;20.84;52.10;100140.13;5101081;28;20088;-78
2023/09/22 11:08:13;;;;;;;0.00;0.00;;;;;;;20.85;51.07;100141.88;5097954;28;20107;-77
2023/09/22 11:10:41;;;;;;;0.00;0.00;;;;;;;20.98;52.60;100144.47;5102890;28;20031;-77
2023/09/22 11:13:08;;;;;;;0.10;0.10;;;;;;;20.94;50.62;100139.47;5102173;28;20023;-78
2023/09/22 11:15:35;;;;;;;0.10;0.10;;;;;;;20.76;49.93;100155.13;5094966;28;20474;-77
2023/09/22 11:18:01;;;;;;;0.00;0.00;;;;;;;20.85;51.59;100154.47;5094060;28;20013;-76
2023/09/22 11:20:28;;;;;;;0.98;0.98;;;;;;;20.79;51.29;100146.84;5088063;28;20063;-77
2023/09/22 11:22:56;;;;;;;0.10;0.10;;;;;;;20.89;51.61;100155.13;5087422;28;20024;-77
2023/09/22 11:25:24;;;;;;;0.00;0.00;;;;;;;20.98;51.03;100144.47;5101193;28;20514;-77
2023/09/22 11:27:52;;;;;;;0.20;0.20;;;;;;;20.84;50.70;100147.38;5094235;28;20029;-78
2023/09/22 11:30:25;;;;;;;0.03;0.03;;;;;;;20.90;50.51;100168.44;5096905;28;20031;-77
2023/09/22 11:32:52;;;;;;;0.10;0.10;;;;;;;20.67;50.26;100152.16;5095617;28;20074;-77
2023/09/22 11:35:39;;;;;;;0.00;0.00;;;;;;;21.00;50.84;100160.56;5098306;28;20027;-77
2023/09/22 11:41:07;;;;;;;0.10;0.10;;;;;;;21.23;50.64;100157.97;5119466;27;20386;-78
2023/09/22 11:43:38;;;;;;;0.10;0.10;;;;;;;21.00;49.82;100163.25;5092415;28;20055;-78